createdAt,value
2022-12-19T00:00:00.383Z,99279.78
2022-12-19T00:02:27.151Z,99286.66
2022-12-19T00:04:53.963Z,99283.88
2022-12-19T00:07:20.619Z,99283.16
2022-12-19T00:09:47.226Z,99277.59
2022-12-19T00:12:19.022Z,99281.56
2022-12-19T00:14:45.965Z,99267.00
2022-12-19T00:17:12.626Z,99265.81
2022-12-19T00:19:39.336Z,99276.75
2022-12-19T00:22:10.900Z,99281.69
2022-12-19T00:24:37.935Z,99279.63
2022-12-19T00:27:04.726Z,99275.31
2022-12-19T00:29:31.400Z,99284.25
2022-12-19T00:31:58.075Z,99289.09
2022-12-19T00:34:24.845Z,99299.66
2022-12-19T00:36:51.539Z,99302.03
2022-12-19T00:39:18.151Z,99309.56
2022-12-19T00:41:44.734Z,99304.84
2022-12-19T00:44:11.438Z,99310.94
2022-12-19T00:46:38.108Z,99310.00
2022-12-19T00:49:04.791Z,99307.34
2022-12-19T00:51:31.474Z,99300.59
2022-12-19T00:53:58.154Z,99289.56
2022-12-19T00:56:25.536Z,99285.75
2022-12-19T00:58:52.274Z,99281.06
2022-12-19T01:01:19.056Z,99278.34
2022-12-19T01:04:04.374Z,99276.41
2022-12-19T01:06:31.427Z,99266.13
2022-12-19T01:08:58.522Z,99254.59
2022-12-19T01:11:25.169Z,99252.66
2022-12-19T01:13:51.885Z,99264.97
2022-12-19T01:16:18.692Z,99271.50
2022-12-19T01:18:46.804Z,99275.88
2022-12-19T01:21:13.421Z,99273.25
2022-12-19T01:23:40.076Z,99270.03
2022-12-19T01:26:06.746Z,99264.69
2022-12-19T01:28:33.388Z,99263.41
2022-12-19T01:31:00.078Z,99270.16
2022-12-19T01:33:26.705Z,99279.41
2022-12-19T01:35:53.414Z,99271.44
2022-12-19T01:38:20.363Z,99259.50
2022-12-19T01:40:47.267Z,99248.56
2022-12-19T01:43:13.945Z,99223.06
2022-12-19T01:45:45.709Z,99228.22
2022-12-19T01:48:12.892Z,99204.34
2022-12-19T01:50:39.609Z,99218.38
2022-12-19T01:53:13.307Z,99219.22
2022-12-19T01:55:39.980Z,99203.00
2022-12-19T01:58:06.573Z,99202.75
2022-12-19T02:00:33.495Z,99203.00
2022-12-19T02:03:00.314Z,99196.19
2022-12-19T02:05:27.143Z,99217.41
2022-12-19T02:07:53.833Z,99216.19
2022-12-19T02:10:20.527Z,99208.66
2022-12-19T02:12:47.227Z,99213.59
2022-12-19T02:15:15.152Z,99211.00
2022-12-19T02:17:41.846Z,99220.47
2022-12-19T02:20:08.522Z,99222.88
2022-12-19T02:22:35.227Z,99222.88
2022-12-19T02:25:01.880Z,99212.97
2022-12-19T02:27:28.626Z,99210.06
2022-12-19T02:29:55.432Z,99198.03
2022-12-19T02:32:22.109Z,99188.56
2022-12-19T02:34:48.820Z,99196.44
2022-12-19T02:37:15.482Z,99196.38
2022-12-19T02:39:42.942Z,99202.19
2022-12-19T02:42:09.704Z,99206.28
2022-12-19T02:44:37.623Z,99209.88
2022-12-19T02:47:04.311Z,99202.84
2022-12-19T02:49:31.284Z,99193.97
2022-12-19T02:51:58.045Z,99201.00
2022-12-19T02:54:24.713Z,99200.06
2022-12-19T02:56:51.403Z,99189.66
2022-12-19T02:59:18.058Z,99186.16
2022-12-19T03:01:45.089Z,99183.56
2022-12-19T03:04:11.922Z,99185.13
2022-12-19T03:06:39.994Z,99188.66
2022-12-19T03:09:07.054Z,99189.47
2022-12-19T03:11:33.719Z,99193.59
2022-12-19T03:14:00.343Z,99184.47
2022-12-19T03:16:27.029Z,99183.56
2022-12-19T03:18:53.738Z,99177.63
2022-12-19T03:21:20.427Z,99171.59
2022-12-19T03:23:47.106Z,99171.50
2022-12-19T03:26:13.719Z,99168.88
2022-12-19T03:28:40.403Z,99183.47
2022-12-19T03:31:07.146Z,99172.31
2022-12-19T03:33:33.871Z,99180.47
2022-12-19T03:36:00.535Z,99173.53
2022-12-19T03:38:27.146Z,99168.25
2022-12-19T03:40:53.784Z,99171.78
2022-12-19T03:43:20.444Z,99166.28
2022-12-19T03:45:47.360Z,99166.84
2022-12-19T03:48:14.044Z,99157.41
2022-12-19T03:50:40.751Z,99157.75
2022-12-19T03:53:07.459Z,99160.72
2022-12-19T03:55:34.174Z,99171.09
2022-12-19T03:58:01.021Z,99171.50
2022-12-19T04:00:27.632Z,99170.66
2022-12-19T04:02:54.375Z,99176.97
2022-12-19T04:05:21.041Z,99176.22
2022-12-19T04:07:47.716Z,99170.75
2022-12-19T04:10:14.339Z,99173.72
2022-12-19T04:12:41.036Z,99172.63
2022-12-19T04:15:07.729Z,99172.63
2022-12-19T04:17:34.415Z,99175.03
2022-12-19T04:20:01.045Z,99163.44
2022-12-19T04:22:27.730Z,99168.06
2022-12-19T04:24:54.587Z,99174.91
2022-12-19T04:27:21.286Z,99164.06
2022-12-19T04:29:47.931Z,99151.47
2022-12-19T04:32:14.623Z,99155.53
2022-12-19T04:34:43.097Z,99161.47
2022-12-19T04:37:09.927Z,99147.75
2022-12-19T04:39:36.597Z,99143.28
2022-12-19T04:42:03.247Z,99150.34
2022-12-19T04:44:29.874Z,99158.25
2022-12-19T04:46:56.622Z,99164.06
2022-12-19T04:49:23.333Z,99149.81
2022-12-19T04:51:51.158Z,99143.47
2022-12-19T04:54:17.838Z,99143.09
2022-12-19T04:56:44.468Z,99135.94
2022-12-19T04:59:11.187Z,99144.88
2022-12-19T05:01:37.978Z,99146.19
2022-12-19T05:04:05.083Z,99140.50
2022-12-19T05:06:31.803Z,99141.63
2022-12-19T05:08:58.485Z,99136.34
2022-12-19T05:11:25.149Z,99139.50
2022-12-19T05:13:51.867Z,99132.44
2022-12-19T05:16:18.977Z,99128.16
2022-12-19T05:18:45.732Z,99134.09
2022-12-19T05:21:12.380Z,99132.63
2022-12-19T05:23:39.011Z,99138.91
2022-12-19T05:26:05.646Z,99133.66
2022-12-19T05:28:32.332Z,99146.34
2022-12-19T05:30:59.071Z,99142.16
2022-12-19T05:33:25.805Z,99139.13
2022-12-19T05:35:52.464Z,99133.84
2022-12-19T05:38:19.361Z,99127.63
2022-12-19T05:40:45.968Z,99122.72
2022-12-19T05:43:12.602Z,99128.09
2022-12-19T05:45:39.425Z,99125.94
2022-12-19T05:48:06.375Z,99134.69
2022-12-19T05:50:36.157Z,99131.44
2022-12-19T05:53:02.848Z,99129.94
2022-12-19T05:55:29.465Z,99132.72
2022-12-19T05:57:56.140Z,99144.69
2022-12-19T06:00:22.809Z,99147.84
2022-12-19T06:02:49.569Z,99145.22
2022-12-19T06:05:16.259Z,99152.56
2022-12-19T06:07:43.085Z,99142.91
2022-12-19T06:10:09.709Z,99146.91
2022-12-19T06:12:36.406Z,99149.50
2022-12-19T06:15:03.164Z,99162.41
2022-12-19T06:17:29.859Z,99155.38
2022-12-19T06:19:56.504Z,99157.03
2022-12-19T06:22:23.208Z,99156.28
2022-12-19T06:24:49.918Z,99157.41
2022-12-19T06:27:16.611Z,99160.91
2022-12-19T06:29:43.242Z,99150.34
2022-12-19T06:32:09.956Z,99148.03
2022-12-19T06:35:03.065Z,99152.56
2022-12-19T06:37:24.040Z,99151.25
2022-12-19T06:39:50.752Z,99155.25
2022-12-19T06:42:17.501Z,99156.38
2022-12-19T06:44:44.217Z,99151.25
2022-12-19T06:47:10.838Z,99147.75
2022-12-19T06:49:37.579Z,99150.25
2022-12-19T06:52:09.001Z,99157.75
2022-12-19T06:54:35.987Z,99164.03
2022-12-19T06:57:02.615Z,99164.59
2022-12-19T06:59:29.262Z,99159.78
2022-12-19T07:01:55.975Z,99158.59
2022-12-19T07:04:22.865Z,99162.38
2022-12-19T07:06:49.582Z,99162.19
2022-12-19T07:09:16.233Z,99155.06
2022-12-19T07:11:42.965Z,99154.16
2022-12-19T07:14:10.633Z,99173.34
2022-12-19T07:16:37.659Z,99170.38
2022-12-19T07:19:04.416Z,99170.00
2022-12-19T07:21:31.101Z,99165.75
2022-12-19T07:23:57.926Z,99166.59
2022-12-19T07:26:24.566Z,99171.25
2022-12-19T07:28:51.312Z,99178.94
2022-12-19T07:31:18.112Z,99177.59
2022-12-19T07:33:44.779Z,99183.44
2022-12-19T07:36:11.523Z,99182.34
2022-12-19T07:38:38.427Z,99180.03
2022-12-19T07:41:05.107Z,99175.78
2022-12-19T07:43:31.764Z,99175.28
2022-12-19T07:45:58.536Z,99185.09
2022-12-19T07:48:25.248Z,99188.81
2022-12-19T07:50:51.945Z,99184.09
2022-12-19T07:53:18.667Z,99195.22
2022-12-19T07:55:45.367Z,99195.78
2022-12-19T07:58:12.039Z,99196.03
2022-12-19T08:00:38.754Z,99192.94
2022-12-19T08:03:05.453Z,99196.34
2022-12-19T08:05:34.702Z,99203.03
2022-12-19T08:08:01.347Z,99196.19
2022-12-19T08:10:28.090Z,99202.19
2022-12-19T08:12:54.848Z,99198.09
2022-12-19T08:15:21.486Z,99199.47
2022-12-19T08:17:48.172Z,99193.19
2022-12-19T08:20:14.834Z,99191.47
2022-12-19T08:22:41.525Z,99192.41
2022-12-19T08:25:08.199Z,99182.97
2022-12-19T08:27:35.509Z,99197.97
2022-12-19T08:30:02.155Z,99190.03
2022-12-19T08:32:28.883Z,99189.47
2022-12-19T08:34:55.528Z,99195.19
2022-12-19T08:37:22.220Z,99195.72
2022-12-19T08:39:48.905Z,99201.78
2022-12-19T08:42:15.633Z,99200.00
2022-12-19T08:44:42.315Z,99190.25
2022-12-19T08:47:09.210Z,99189.09
2022-12-19T08:49:35.836Z,99184.00
2022-12-19T08:52:02.512Z,99189.41
2022-12-19T08:54:29.211Z,99192.56
2022-12-19T08:56:55.904Z,99190.16
2022-12-19T08:59:31.659Z,99203.00
2022-12-19T09:01:58.844Z,99198.19
2022-12-19T09:05:39.549Z,99204.75
2022-12-19T09:07:12.319Z,99202.78
2022-12-19T09:09:42.500Z,99206.13
2022-12-19T09:12:09.211Z,99196.03
2022-12-19T09:14:36.131Z,99198.19
2022-12-19T09:17:04.548Z,99195.66
2022-12-19T09:19:31.727Z,99199.34
2022-12-19T09:21:58.408Z,99184.91
2022-12-19T09:24:25.119Z,99186.38
2022-12-19T09:26:51.847Z,99181.16
2022-12-19T09:29:20.441Z,99186.47
2022-12-19T09:31:51.557Z,99188.69
2022-12-19T09:34:23.985Z,99188.94
2022-12-19T09:36:51.561Z,99193.75
2022-12-19T09:39:18.215Z,99188.41
2022-12-19T09:41:44.929Z,99186.97
2022-12-19T09:44:11.628Z,99197.56
2022-12-19T09:46:38.326Z,99192.66
2022-12-19T09:49:06.300Z,99192.56
2022-12-19T09:51:32.966Z,99187.50
2022-12-19T09:53:59.675Z,99184.22
2022-12-19T09:56:26.350Z,99176.66
2022-12-19T09:58:53.030Z,99171.84
2022-12-19T10:01:19.817Z,99172.22
2022-12-19T10:03:46.668Z,99175.78
2022-12-19T10:07:11.920Z,99172.66
2022-12-19T10:09:52.909Z,99163.06
2022-12-19T10:12:45.022Z,99155.91
2022-12-19T10:14:33.260Z,99151.19
2022-12-19T10:17:23.018Z,99158.56
2022-12-19T10:19:46.792Z,99159.28
2022-12-19T10:22:18.689Z,99159.38
2022-12-19T10:24:52.703Z,99159.19
2022-12-19T10:27:32.535Z,99155.91
2022-12-19T10:29:59.332Z,99146.25
2022-12-19T10:32:26.005Z,99151.00
2022-12-19T10:34:52.694Z,99150.59
2022-12-19T10:37:26.717Z,99145.69
2022-12-19T10:39:58.123Z,99141.47
2022-12-19T10:42:24.825Z,99133.03
2022-12-19T10:44:51.492Z,99130.47
2022-12-19T10:47:18.237Z,99118.72
2022-12-19T10:49:44.909Z,99123.00
2022-12-19T10:52:12.901Z,99121.75
2022-12-19T10:54:39.759Z,99122.81
2022-12-19T10:57:06.680Z,99109.59
2022-12-19T10:59:33.336Z,99118.34
2022-12-19T11:02:01.702Z,99115.41
2022-12-19T11:04:29.896Z,99118.06
2022-12-19T11:06:56.602Z,99114.44
2022-12-19T11:09:23.239Z,99105.72
2022-12-19T11:14:25.774Z,99113.41
2022-12-19T11:19:50.788Z,99108.53
2022-12-19T11:26:11.371Z,99112.00
2022-12-19T11:29:29.883Z,99106.25
2022-12-19T11:29:33.804Z,99094.50
2022-12-19T11:29:40.716Z,99101.16
2022-12-19T11:30:59.414Z,99087.38
2022-12-19T11:34:03.212Z,99095.09
2022-12-19T11:36:29.855Z,99092.06
2022-12-19T11:38:56.543Z,99087.28
2022-12-19T11:41:23.242Z,99088.97
2022-12-19T11:43:49.953Z,99089.59
2022-12-19T11:46:21.726Z,99087.91
2022-12-19T11:48:49.033Z,99090.91
2022-12-19T11:51:15.738Z,99093.00
2022-12-19T11:53:42.517Z,99091.88
2022-12-19T11:56:15.964Z,99083.16
2022-12-19T11:58:43.524Z,99082.16
2022-12-19T12:01:10.511Z,99076.25
2022-12-19T12:03:37.695Z,99077.63
2022-12-19T12:06:04.844Z,99074.56
2022-12-19T12:10:33.330Z,99067.59
2022-12-19T12:14:52.188Z,99072.59
2022-12-19T12:21:32.503Z,99069.28
2022-12-19T12:28:09.713Z,99079.91
2022-12-19T12:31:04.474Z,99061.47
2022-12-19T12:31:08.838Z,99063.47
2022-12-19T12:31:11.744Z,99076.06
2022-12-19T12:31:52.365Z,99054.34
2022-12-19T12:32:05.584Z,99062.06
2022-12-19T12:35:31.526Z,99046.13
2022-12-19T12:39:07.482Z,99041.97
2022-12-19T12:41:34.773Z,99037.50
2022-12-19T12:44:01.615Z,99041.25
2022-12-19T12:46:28.486Z,99039.78
2022-12-19T12:48:55.760Z,99033.13
2022-12-19T12:51:22.796Z,99031.19
2022-12-19T12:53:49.592Z,99033.69
2022-12-19T12:56:16.394Z,99033.69
2022-12-19T12:58:43.487Z,99033.16
2022-12-19T13:01:10.487Z,99025.06
2022-12-19T13:03:38.070Z,99032.06
2022-12-19T13:06:05.021Z,99032.03
2022-12-19T13:08:32.369Z,99025.16
2022-12-19T13:10:59.257Z,99027.47
2022-12-19T13:13:26.374Z,99026.00
2022-12-19T13:15:53.237Z,99019.47
2022-12-19T13:18:19.963Z,99019.31
2022-12-19T13:20:46.750Z,99019.31
2022-12-19T13:23:13.478Z,99009.13
2022-12-19T13:25:40.205Z,99022.00
2022-12-19T13:28:06.989Z,99025.09
2022-12-19T13:31:18.949Z,99022.81
2022-12-19T13:33:20.563Z,99024.47
2022-12-19T13:36:48.494Z,99018.56
2022-12-19T13:40:01.728Z,99004.25
2022-12-19T13:41:21.225Z,99000.56
2022-12-19T13:43:48.047Z,99006.22
2022-12-19T13:46:15.283Z,99001.81
2022-12-19T13:48:42.243Z,99011.09
2022-12-19T13:51:09.071Z,99009.44
2022-12-19T13:53:35.795Z,98996.66
2022-12-19T13:56:02.696Z,99004.31
2022-12-19T13:58:29.910Z,99001.16
2022-12-19T14:00:56.768Z,98998.09
2022-12-19T14:03:23.928Z,99004.97
2022-12-19T14:06:16.118Z,98999.56
2022-12-19T14:08:38.258Z,98992.53
2022-12-19T14:11:47.705Z,98989.97
2022-12-19T14:14:03.424Z,98989.66
2022-12-19T14:16:39.836Z,98983.91
2022-12-19T14:19:11.850Z,98987.66
2022-12-19T14:22:05.277Z,98988.19
2022-12-19T14:24:25.391Z,98996.44
2022-12-19T14:28:28.380Z,98997.13
2022-12-19T14:30:27.366Z,98993.06
2022-12-19T14:33:43.871Z,98994.41
2022-12-19T14:36:06.398Z,98993.97
2022-12-19T14:39:23.727Z,98983.28
2022-12-19T14:41:08.397Z,98999.75
2022-12-19T14:43:59.031Z,98992.03
2022-12-19T14:52:51.020Z,98992.72
2022-12-19T14:53:52.336Z,98997.03
2022-12-19T14:54:35.861Z,98997.44
2022-12-19T14:56:03.814Z,98989.97
2022-12-19T14:58:07.882Z,98989.66
2022-12-19T15:00:50.645Z,98983.81
2022-12-19T15:03:02.508Z,98977.69
2022-12-19T15:05:29.646Z,98980.94
2022-12-19T15:07:56.822Z,98984.16
2022-12-19T15:11:05.453Z,98972.69
2022-12-19T15:14:47.193Z,98970.41
2022-12-19T15:15:57.399Z,98972.81
2022-12-19T15:18:24.116Z,98968.75
2022-12-19T15:20:50.794Z,98966.34
2022-12-19T15:23:21.977Z,98971.34
2022-12-19T15:26:06.674Z,98967.59
2022-12-19T15:28:34.278Z,98970.41
2022-12-19T15:31:01.022Z,98963.22
2022-12-19T15:33:27.752Z,98964.19
2022-12-19T15:35:54.517Z,98966.97
2022-12-19T15:38:21.181Z,98967.53
2022-12-19T15:40:47.906Z,98976.50
2022-12-19T15:43:53.307Z,98970.38
2022-12-19T15:46:01.323Z,98964.06
2022-12-19T15:48:28.081Z,98973.94
2022-12-19T15:50:54.792Z,98973.09
2022-12-19T15:53:34.518Z,98973.31
2022-12-19T15:56:06.917Z,98961.25
2022-12-19T15:58:33.626Z,98976.03
2022-12-19T16:01:00.304Z,98969.69
2022-12-19T16:03:27.445Z,98965.75
2022-12-19T16:05:54.418Z,98970.09
2022-12-19T16:08:21.291Z,98975.50
2022-12-19T16:10:48.051Z,98980.88
2022-12-19T16:13:14.780Z,98971.47
2022-12-19T16:15:41.484Z,98968.13
2022-12-19T16:18:08.242Z,98956.69
2022-12-19T16:20:34.933Z,98960.63
2022-12-19T16:23:01.695Z,98959.63
2022-12-19T16:25:28.415Z,98960.09
2022-12-19T16:27:55.123Z,98966.16
2022-12-19T16:30:21.775Z,98966.53
2022-12-19T16:32:48.441Z,98958.91
2022-12-19T16:35:20.326Z,98952.16
2022-12-19T16:37:50.912Z,98963.59
2022-12-19T16:40:17.555Z,98960.25
2022-12-19T16:42:44.259Z,98958.31
2022-12-19T16:45:10.916Z,98949.75
2022-12-19T16:47:37.743Z,98958.63
2022-12-19T16:50:04.474Z,98963.34
2022-12-19T16:52:33.185Z,98958.91
2022-12-19T16:55:02.834Z,98957.53
2022-12-19T16:57:29.521Z,98955.91
2022-12-19T16:59:56.223Z,98952.78
2022-12-19T17:02:22.997Z,98945.69
2022-12-19T17:04:53.929Z,98945.53
2022-12-19T17:07:20.944Z,98942.97
2022-12-19T17:09:47.588Z,98933.56
2022-12-19T17:12:14.227Z,98936.41
2022-12-19T17:14:40.953Z,98930.97
2022-12-19T17:17:07.725Z,98929.13
2022-12-19T17:19:34.478Z,98924.03
2022-12-19T17:22:01.153Z,98928.91
2022-12-19T17:24:27.842Z,98930.03
2022-12-19T17:26:54.508Z,98935.13
2022-12-19T17:29:21.169Z,98935.47
2022-12-19T17:31:47.894Z,98940.00
2022-12-19T17:34:14.529Z,98941.81
2022-12-19T17:36:41.234Z,98942.22
2022-12-19T17:39:07.925Z,98942.53
2022-12-19T17:41:34.617Z,98944.09
2022-12-19T17:44:01.359Z,98951.88
2022-12-19T17:46:28.147Z,98950.03
2022-12-19T17:48:54.884Z,98950.25
2022-12-19T17:51:21.546Z,98952.50
2022-12-19T17:53:48.246Z,98952.44
2022-12-19T17:56:14.872Z,98961.91
2022-12-19T17:58:41.637Z,98965.28
2022-12-19T18:01:08.334Z,98956.53
2022-12-19T18:03:35.116Z,98957.84
2022-12-19T18:06:04.917Z,98959.97
2022-12-19T18:08:34.027Z,98966.06
2022-12-19T18:11:00.732Z,98961.50
2022-12-19T18:13:27.481Z,98957.25
2022-12-19T18:15:54.131Z,98952.09
2022-12-19T18:18:20.843Z,98951.19
2022-12-19T18:20:47.553Z,98950.19
2022-12-19T18:23:14.255Z,98951.06
2022-12-19T18:25:40.908Z,98951.00
2022-12-19T18:28:07.600Z,98947.91
2022-12-19T18:30:34.384Z,98951.47
2022-12-19T18:33:01.118Z,98942.94
2022-12-19T18:35:27.828Z,98940.34
2022-12-19T18:37:54.481Z,98945.16
2022-12-19T18:40:25.954Z,98945.84
2022-12-19T18:42:56.026Z,98944.19
2022-12-19T18:45:22.672Z,98949.59
2022-12-19T18:47:51.587Z,98945.53
2022-12-19T18:50:18.404Z,98944.59
2022-12-19T18:52:45.137Z,98947.31
2022-12-19T18:55:11.859Z,98945.03
2022-12-19T18:57:38.850Z,98946.88
2022-12-19T19:00:05.539Z,98943.97
2022-12-19T19:02:32.429Z,98934.63
2022-12-19T19:04:59.359Z,98932.88
2022-12-19T19:07:26.069Z,98932.34
2022-12-19T19:09:52.740Z,98937.00
2022-12-19T19:12:19.410Z,98935.75
2022-12-19T19:14:46.109Z,98927.53
2022-12-19T19:17:12.922Z,98922.97
2022-12-19T19:19:39.647Z,98921.94
2022-12-19T19:22:06.372Z,98928.19
2022-12-19T19:24:33.063Z,98923.31
2022-12-19T19:26:59.782Z,98927.56
2022-12-19T19:29:26.525Z,98931.69
2022-12-19T19:31:53.205Z,98926.66
2022-12-19T19:34:19.937Z,98929.72
2022-12-19T19:36:46.599Z,98930.97
2022-12-19T19:39:13.316Z,98931.16
2022-12-19T19:41:39.962Z,98924.63
2022-12-19T19:44:06.848Z,98920.91
2022-12-19T19:46:33.550Z,98913.50
2022-12-19T19:49:00.352Z,98905.38
2022-12-19T19:51:27.080Z,98906.03
2022-12-19T19:53:53.789Z,98907.59
2022-12-19T19:56:20.490Z,98899.88
2022-12-19T19:58:47.189Z,98906.56
2022-12-19T20:01:13.989Z,98901.97
2022-12-19T20:03:40.832Z,98896.22
2022-12-19T20:06:08.078Z,98901.25
2022-12-19T20:08:39.593Z,98896.78
2022-12-19T20:11:07.135Z,98901.63
2022-12-19T20:13:33.963Z,98903.63
2022-12-19T20:16:00.796Z,98897.88
2022-12-19T20:18:27.600Z,98895.94
2022-12-19T20:20:54.299Z,98894.66
2022-12-19T20:23:21.034Z,98890.56
2022-12-19T20:25:48.799Z,98891.31
2022-12-19T20:28:15.511Z,98886.63
2022-12-19T20:30:42.209Z,98890.66
2022-12-19T20:33:08.916Z,98880.25
2022-12-19T20:35:35.598Z,98876.00
2022-12-19T20:38:02.278Z,98869.75
2022-12-19T20:40:28.997Z,98861.56
2022-12-19T20:42:55.720Z,98864.34
2022-12-19T20:45:22.486Z,98868.66
2022-12-19T20:47:49.113Z,98883.63
2022-12-19T20:50:15.797Z,98885.59
2022-12-19T20:52:42.466Z,98870.88
2022-12-19T20:55:09.152Z,98871.31
2022-12-19T20:57:35.824Z,98882.97
2022-12-19T21:00:02.621Z,98879.59
2022-12-19T21:02:46.243Z,98870.53
2022-12-19T21:05:16.143Z,98874.47
2022-12-19T21:07:42.849Z,98870.06
2022-12-19T21:10:09.522Z,98865.81
2022-12-19T21:12:36.182Z,98865.06
2022-12-19T21:15:02.877Z,98867.31
2022-12-19T21:17:29.528Z,98855.84
2022-12-19T21:19:56.159Z,98850.78
2022-12-19T21:22:22.871Z,98848.03
2022-12-19T21:24:49.610Z,98849.75
2022-12-19T21:27:16.283Z,98848.25
2022-12-19T21:29:42.993Z,98848.44
2022-12-19T21:34:53.911Z,98848.84
2022-12-19T21:37:20.629Z,98857.53
2022-12-19T21:39:47.341Z,98856.34
2022-12-19T21:42:14.144Z,98852.56
2022-12-19T21:44:40.896Z,98846.63
2022-12-19T21:47:07.700Z,98848.81
2022-12-19T21:49:34.386Z,98855.13
2022-12-19T21:52:01.112Z,98856.56
2022-12-19T21:54:27.748Z,98853.41
2022-12-19T21:56:54.441Z,98847.88
2022-12-19T21:59:21.114Z,98844.31
2022-12-19T22:01:47.952Z,98841.19
2022-12-19T22:04:14.893Z,98842.75
2022-12-19T22:06:41.677Z,98835.91
2022-12-19T22:09:08.361Z,98831.47
2022-12-19T22:11:35.082Z,98831.59
2022-12-19T22:14:03.153Z,98837.19
2022-12-19T22:16:29.871Z,98826.03
2022-12-19T22:18:56.690Z,98826.72
2022-12-19T22:21:23.403Z,98830.81
2022-12-19T22:23:52.259Z,98829.56
2022-12-19T22:26:18.914Z,98819.13
2022-12-19T22:28:45.658Z,98822.00
2022-12-19T22:31:12.423Z,98820.31
2022-12-19T22:33:39.210Z,98811.72
2022-12-19T22:36:05.813Z,98801.91
2022-12-19T22:38:32.581Z,98799.84
2022-12-19T22:40:59.293Z,98796.81
2022-12-19T22:43:25.915Z,98788.63
2022-12-19T22:45:52.602Z,98793.94
2022-12-19T22:48:19.331Z,98788.09
2022-12-19T22:50:45.987Z,98799.63
2022-12-19T22:53:13.114Z,98805.06
2022-12-19T22:55:39.826Z,98798.44
2022-12-19T23:00:50.734Z,98791.53
2022-12-19T23:03:17.643Z,98783.25
2022-12-19T23:05:50.141Z,98780.53
2022-12-19T23:08:18.470Z,98775.25
2022-12-19T23:10:45.151Z,98775.63
2022-12-19T23:13:11.825Z,98768.97
2022-12-19T23:15:38.550Z,98769.72
2022-12-19T23:18:05.185Z,98762.16
2022-12-19T23:20:31.856Z,98764.88
2022-12-19T23:22:58.512Z,98761.19
2022-12-19T23:25:25.186Z,98748.25
2022-12-19T23:27:51.893Z,98746.78
2022-12-19T23:30:18.596Z,98757.28
2022-12-19T23:32:50.454Z,98759.22
2022-12-19T23:35:17.679Z,98751.84
2022-12-19T23:37:44.318Z,98750.94
2022-12-19T23:40:11.019Z,98751.53
2022-12-19T23:42:37.676Z,98754.44
2022-12-19T23:45:04.378Z,98750.28
2022-12-19T23:47:31.056Z,98754.53
2022-12-19T23:49:57.737Z,98753.56
2022-12-19T23:52:24.418Z,98733.81
2022-12-19T23:54:51.113Z,98733.50
2022-12-19T23:57:17.778Z,98740.41
2022-12-19T23:59:44.478Z,98730.53
